• Join FlightAware (Why Join?)
  • Login
  • US Flag 
03:37AM EDT


 

Airport Tracker/Info


-or-


 

Live Flight TrackerFlight Track Log ✈ N960DL ✈ 22-Apr-2013 ✈ KDFW - KATL

Flight Track Log - Related Links

Times and Time Zones

All times are in EDT time to prevent confusion due to time zone crossing. See the N960DL flight status page for this flight to view local times or setup timezone preferences in your user account.

Time Position Orientation Groundspeed Altitude Reporting Facility
EDT Latitude Longitude Course Direction KTS MPH feet Rate Location/Type
08:46AM 32.8667 -97.0333 65° Northeast 167 192 2,200  Level Dallas / Fort Worth TRACON
08:47AM 32.8167 -97.0333 180° South 225 259 4,200 2,460 Climbing Dallas / Fort Worth TRACON
08:48AM 32.7500 -97.0333 180° South 264 304 6,900 1,620 Climbing Dallas / Fort Worth TRACON
08:49AM 32.7356 -96.6434 68° East  Level FlightAware Approximate
08:50AM 32.7846 -96.5035 65° Northeast  Level FlightAware Approximate
08:50AM 32.6983 -96.8283 107° East 309 356 10,000  Level Fort Worth Center
08:51AM 32.8376 -96.3656 65° Northeast  Level FlightAware Approximate
08:51AM 32.7375 -96.6972 70° East 351 404 12,300  Level Fort Worth Center
08:52AM 32.7764 -96.5881 67° East 393 452 15,000 2,460 Climbing Fort Worth Center
08:53AM 32.8256 -96.4469 67° East 407 468 17,300 2,040 Climbing Fort Worth Center
08:54AM 32.8619 -96.3203 71° East 432 497 19,100 1,800 Climbing Fort Worth Center
08:55AM 32.8689 -96.1469 87° East 463 533 20,900 1,800 Climbing Fort Worth Center
08:56AM 32.8714 -96.0011 89° East 480 552 22,800 1,680 Climbing Fort Worth Center
08:57AM 32.8753 -95.8131 89° East 501 577 24,300 1,680 Climbing Fort Worth Center
08:58AM 32.8756 -95.6597 90° East 510 587 26,200 1,980 Climbing Fort Worth Center
08:59AM 32.8814 -95.4964 88° East 510 587 28,300 1,680 Climbing Fort Worth Center
09:00AM 32.8872 -95.3306 88° East 510 587 29,600 1,440 Climbing Fort Worth Center
09:01AM 32.9092 -95.1517 82° East 500 575 31,200 1,620 Climbing Fort Worth Center
09:02AM 32.9333 -94.9928 80° East 494 568 32,900 900 Climbing Fort Worth Center
09:03AM 32.9553 -94.8386 80° East 481 554 33,000  Climbing Fort Worth Center
09:04AM 32.9792 -94.6794 80° East 481 554 33,000  Level Fort Worth Center
09:05AM 33.0028 -94.5228 80° East 481 554 33,000  Level Fort Worth Center
09:06AM 33.0261 -94.3633 80° East 486 559 33,000  Level Fort Worth Center
09:07AM 33.0514 -94.2064 79° East 486 559 33,000  Level Fort Worth Center
09:08AM 33.0722 -94.0469 81° East 486 559 33,000  Level Fort Worth Center
09:09AM 33.0969 -93.8850 80° East 486 559 33,000  Level Fort Worth Center
09:10AM 33.1181 -93.7403 80° East 486 559 33,000  Level Fort Worth Center
09:11AM 33.1422 -93.5756 80° East 486 559 33,000  Level Fort Worth Center
09:12AM 33.1642 -93.4133 81° East 492 566 33,000  Level Fort Worth Center
09:13AM 33.1903 -93.2508 79° East 492 566 33,000  Level Fort Worth Center
09:14AM 33.2139 -93.0858 80° East 492 566 33,000 360 Level Fort Worth Center
09:15AM 33.2394 -92.9206 79° East 492 566 33,800 600 Climbing Fort Worth Center
09:16AM 33.2564 -92.7558 83° East 497 572 34,300 540 Climbing Fort Worth Center
09:17AM 33.2292 -92.5836 101° East 508 585 34,900 300 Climbing Fort Worth Center
09:18AM 33.1931 -92.4117 104° East 514 592 35,000 60 Climbing Fort Worth Center
09:18AM 33.1800 -92.3528 105° East 515 593 35,000  Level Memphis Center
09:19AM 33.1489 -92.2058 104° East 503 579 35,000  Level Memphis Center
09:20AM 33.1117 -92.0364 105° East 514 592 35,000  Level Memphis Center
09:21AM 33.0661 -91.8494 106° East 519 597 35,000  Level Memphis Center
09:22AM 33.0303 -91.6831 104° East 519 597 35,000  Level Memphis Center
09:23AM 32.9944 -91.5164 104° East 514 592 35,000  Level Memphis Center
09:24AM 32.9603 -91.3500 104° East 514 592 35,000  Level Memphis Center
09:25AM 32.9219 -91.1814 105° East 519 597 35,000  Level Memphis Center
09:26AM 32.8853 -91.0153 105° East 514 592 35,000  Level Memphis Center
09:27AM 32.8506 -90.8469 104° East 514 592 35,000  Level Memphis Center
09:28AM 32.8114 -90.6811 106° East 514 592 35,000  Level Memphis Center
09:29AM 32.7761 -90.5178 104° East 514 592 35,000  Level Memphis Center
09:30AM 32.7386 -90.3547 105° East 514 592 35,000  Level Memphis Center
09:31AM 32.7053 -90.2042 105° East 514 592 35,000  Level Memphis Center
09:32AM 32.6672 -90.0414 105° East 514 592 35,000  Level Memphis Center
09:33AM 32.6292 -89.8786 105° East 514 592 35,000  Level Memphis Center
09:34AM 32.5931 -89.7161 105° East 514 592 35,000  Level Memphis Center
09:35AM 32.5544 -89.5564 106° East 514 592 35,000  Level Memphis Center
09:36AM 32.5178 -89.3964 105° East 514 592 35,000  Level Memphis Center
09:37AM 32.4789 -89.2344 106° East 508 585 35,000  Level Memphis Center
09:38AM 32.4419 -89.0747 105° East 508 585 35,000  Level Memphis Center
09:39AM 32.4003 -88.9031 106° East 497 572 35,000  Level Memphis Center
09:41AM 32.4031 -88.6022 89° East 482 555 35,000  Level Atlanta Center
09:42AM 32.4219 -88.4286 83° East 477 549 35,000  Level Atlanta Center
09:43AM 32.4422 -88.2694 81° East 484 557 35,000  Level Atlanta Center
09:44AM 32.4600 -88.1103 82° East 484 557 35,000 -300 Level Atlanta Center
09:45AM 32.4783 -87.9292 83° East 492 566 34,500 -1,440 Descending Atlanta Center
09:46AM 32.5003 -87.7650 81° East 497 572 32,200 -1,800 Descending Atlanta Center
09:47AM 32.5364 -87.6014 75° East 502 578 31,000 -1,200 Descending Atlanta Center
09:48AM 32.5742 -87.4428 74° East 507 583 29,800 -1,140 Descending Atlanta Center
09:49AM 32.6078 -87.2789 76° East 507 583 28,800 -840 Descending Atlanta Center
09:50AM 32.6453 -87.1175 75° East 507 583 28,200 -720 Descending Atlanta Center
09:51AM 32.6806 -86.9583 75° East 507 583 27,400 -900 Descending Atlanta Center
09:52AM 32.7114 -86.8014 77° East 493 567 26,400 -960 Descending Atlanta Center
09:53AM 32.7461 -86.6467 75° East 485 558 25,500 -900 Descending Atlanta Center
09:54AM 32.7839 -86.5244 70° East 485 558 24,700 -780 Descending Atlanta Center
09:55AM 32.8314 -86.3428 73° East 472 543 24,000 -360 Descending Atlanta Center
09:56AM 32.8692 -86.2103 71° East 477 549 24,000  Level Atlanta Center
09:57AM 32.9117 -86.0553 72° East 483 556 24,000  Level Atlanta Center
09:58AM 32.9494 -85.9003 74° East 483 556 24,000 -300 Level Atlanta Center
09:59AM 32.9911 -85.7550 77° East 476 548 23,400 -1,440 Descending Atlanta Center
10:00AM 32.9805 -85.7410 77° East  Level FlightAware Approximate
10:00AM 33.0267 -85.6122 73° East 465 535 21,200  Level Atlanta Center
10:01AM 33.0636 -85.4714 73° East 447 514 18,600 -2,400 Descending Atlanta Center
10:02AM 33.1006 -85.3408 71° East 423 487 16,400 -2,340 Descending Atlanta Center
10:03AM 33.1333 -85.2122 73° East 412 474 14,000 -2,100 Descending Atlanta Center
10:04AM 33.1678 -85.0911 71° East 392 451 12,300 -1,140 Descending Atlanta Center
10:05AM 33.2144 -84.9872 62° Northeast 356 410 11,800 -1,080 Descending Atlanta Center
10:06AM 33.2714 -84.9108 48° Northeast 313 360 10,200 -1,380 Descending Atlanta Center
10:07AM 33.3261 -84.8419 46° Northeast 294 338 9,100 -1,440 Descending Atlanta Center
10:08AM 33.3994 -84.8175 16° North 269 310 7,400 -1,860 Descending Atlanta Center
10:09AM 33.4333 -84.8167 North 279 321 6,600 -1,080 Descending Atlanta TRACON
10:10AM 33.5000 -84.8000 12° North 286 329 6,000 -840 Descending Atlanta TRACON
10:11AM 33.5833 -84.7833 North 281 323 5,000 -780 Descending Atlanta TRACON
10:12AM 33.6333 -84.7667 16° North 217 250 4,500 -480 Descending Atlanta TRACON
10:13AM 33.6500 -84.7167 68° East 150 173 4,100 -300 Descending Atlanta TRACON
10:14AM 33.6500 -84.6667 90° East 145 167 4,000 -120 Descending Atlanta TRACON
10:15AM 33.6500 -84.6167 90° East 142 163 3,900 -120 Descending Atlanta TRACON